createdAt,value
2022-09-06T00:00:41.306Z,98474.63
2022-09-06T00:01:42.813Z,98476.53
2022-09-06T00:02:44.518Z,98473.41
2022-09-06T00:03:46.355Z,98475.28
2022-09-06T00:04:47.757Z,98477.94
2022-09-06T00:05:49.486Z,98474.06
2022-09-06T00:06:50.843Z,98480.16
2022-09-06T00:07:52.183Z,98473.25
2022-09-06T00:08:53.546Z,98474.84
2022-09-06T00:09:54.883Z,98467.59
2022-09-06T00:11:00.380Z,98467.53
2022-09-06T00:12:02.620Z,98472.91
2022-09-06T00:13:05.186Z,98470.59
2022-09-06T00:14:06.608Z,98460.22
2022-09-06T00:15:08.163Z,98458.31
2022-09-06T00:16:11.360Z,98460.28
2022-09-06T00:17:13.860Z,98462.19
2022-09-06T00:18:15.210Z,98459.84
2022-09-06T00:19:16.565Z,98459.84
2022-09-06T00:20:17.969Z,98458.63
2022-09-06T00:21:19.275Z,98458.28
2022-09-06T00:22:20.624Z,98460.22
2022-09-06T00:23:21.983Z,98449.00
2022-09-06T00:24:23.387Z,98460.53
2022-09-06T00:25:24.835Z,98452.41
2022-09-06T00:26:26.188Z,98448.50
2022-09-06T00:27:27.531Z,98453.88
2022-09-06T00:28:28.877Z,98460.88
2022-09-06T00:29:30.255Z,98452.41
2022-09-06T00:30:32.364Z,98458.56
2022-09-06T00:31:33.752Z,98460.53
2022-09-06T00:32:35.137Z,98459.75
2022-09-06T00:33:36.569Z,98452.03
2022-09-06T00:34:37.919Z,98450.44
2022-09-06T00:35:39.244Z,98456.91
2022-09-06T00:36:40.591Z,98461.09
2022-09-06T00:37:41.959Z,98463.81
2022-09-06T00:38:43.521Z,98469.63
2022-09-06T00:39:44.896Z,98465.47
2022-09-06T00:40:46.259Z,98461.75
2022-09-06T00:41:47.632Z,98467.47
2022-09-06T00:42:49.097Z,98467.34
2022-09-06T00:43:50.428Z,98464.25
2022-09-06T00:44:51.808Z,98469.59
2022-09-06T00:45:53.731Z,98461.06
2022-09-06T00:46:55.265Z,98464.88
2022-09-06T00:47:58.400Z,98464.06
2022-09-06T00:49:23.019Z,98457.13
2022-09-06T00:50:24.495Z,98457.19
2022-09-06T00:51:28.347Z,98443.75
2022-09-06T00:52:30.246Z,98451.75
2022-09-06T00:53:32.394Z,98457.09
2022-09-06T00:54:33.920Z,98451.31
2022-09-06T00:55:35.419Z,98447.53
2022-09-06T00:56:40.528Z,98452.91
2022-09-06T00:57:42.112Z,98455.09
2022-09-06T00:58:43.660Z,98449.63
2022-09-06T00:59:45.842Z,98462.63
2022-09-06T01:00:47.224Z,98462.19
2022-09-06T01:01:48.713Z,98460.25
2022-09-06T01:02:50.356Z,98468.63
2022-09-06T01:03:51.832Z,98468.19
2022-09-06T01:04:53.827Z,98472.41
2022-09-06T01:06:11.840Z,98467.72
2022-09-06T01:07:31.620Z,98474.19
2022-09-06T01:08:39.912Z,98474.91
2022-09-06T01:09:56.120Z,98481.53
2022-09-06T01:11:08.275Z,98477.84
2022-09-06T01:12:21.734Z,98482.47
2022-09-06T01:13:41.792Z,98479.78
2022-09-06T01:14:49.195Z,98476.38
2022-09-06T01:15:50.585Z,98475.63
2022-09-06T01:16:54.718Z,98472.50
2022-09-06T01:17:58.899Z,98468.66
2022-09-06T01:19:00.207Z,98467.41
2022-09-06T01:20:04.172Z,98468.50
2022-09-06T01:21:14.868Z,98466.97
2022-09-06T01:22:44.414Z,98468.50
2022-09-06T01:23:45.759Z,98476.16
2022-09-06T01:24:49.836Z,98468.81
2022-09-06T01:25:54.060Z,98467.94
2022-09-06T01:27:24.595Z,98474.19
2022-09-06T01:28:31.907Z,98469.66
2022-09-06T01:29:39.342Z,98476.09
2022-09-06T01:30:43.956Z,98476.00
2022-09-06T01:31:48.238Z,98482.91
2022-09-06T01:32:49.591Z,98486.44
2022-09-06T01:33:53.542Z,98493.84
2022-09-06T01:35:07.159Z,98499.22
2022-09-06T01:36:11.935Z,98486.94
2022-09-06T01:37:15.860Z,98488.06
2022-09-06T01:38:17.390Z,98486.09
2022-09-06T01:39:27.233Z,98487.22
2022-09-06T01:40:28.779Z,98487.91
2022-09-06T01:41:30.777Z,98490.19
2022-09-06T01:42:33.009Z,98487.22
2022-09-06T01:43:39.393Z,98490.31
2022-09-06T01:44:43.659Z,98493.78
2022-09-06T01:45:53.691Z,98493.00
2022-09-06T01:47:04.673Z,98494.84
2022-09-06T01:48:28.880Z,98498.19
2022-09-06T01:49:36.410Z,98497.81
2022-09-06T01:50:56.618Z,98497.81
2022-09-06T01:51:57.968Z,98501.59
2022-09-06T01:53:01.955Z,98495.03
2022-09-06T01:54:21.411Z,98502.31
2022-09-06T01:55:35.135Z,98495.03
2022-09-06T01:56:48.267Z,98492.44
2022-09-06T01:58:08.428Z,98493.19
2022-09-06T01:59:28.513Z,98496.56
2022-09-06T02:00:31.991Z,98493.28
2022-09-06T02:01:51.977Z,98494.44
2022-09-06T02:03:05.513Z,98495.97
2022-09-06T02:04:18.557Z,98495.56
2022-09-06T02:05:26.080Z,98502.03
2022-09-06T02:06:29.834Z,98498.13
2022-09-06T02:07:31.936Z,98501.88
2022-09-06T02:08:36.802Z,98503.41
2022-09-06T02:09:40.208Z,98514.91
2022-09-06T02:10:47.909Z,98535.22
2022-09-06T02:11:51.897Z,98581.34
2022-09-06T02:12:54.303Z,98597.03
2022-09-06T02:13:58.644Z,98588.56
2022-09-06T02:15:02.400Z,98589.81
2022-09-06T02:16:05.443Z,98603.63
2022-09-06T02:17:09.708Z,98604.47
2022-09-06T02:18:21.722Z,98604.09
2022-09-06T02:19:32.776Z,98606.44
2022-09-06T02:20:36.005Z,98601.03
2022-09-06T02:21:39.964Z,98593.41
2022-09-06T02:22:43.617Z,98598.88
2022-09-06T02:23:46.537Z,98594.66
2022-09-06T02:24:50.019Z,98601.25
2022-09-06T02:25:54.068Z,98604.47
2022-09-06T02:26:55.591Z,98593.34
2022-09-06T02:27:57.027Z,98588.88
2022-09-06T02:28:58.484Z,98594.34
2022-09-06T02:29:59.832Z,98590.53
2022-09-06T02:31:03.724Z,98591.44
2022-09-06T02:32:10.996Z,98591.78
2022-09-06T02:33:19.867Z,98588.69
2022-09-06T02:34:21.742Z,98585.44
2022-09-06T02:35:23.149Z,98582.88
2022-09-06T02:36:24.848Z,98579.84
2022-09-06T02:37:26.980Z,98571.59
2022-09-06T02:38:28.409Z,98563.81
2022-09-06T02:39:29.852Z,98563.69
2022-09-06T02:40:31.258Z,98571.03
2022-09-06T02:41:33.235Z,98569.91
2022-09-06T02:42:34.861Z,98580.94
2022-09-06T02:43:36.255Z,98576.97
2022-09-06T02:44:37.664Z,98579.59
2022-09-06T02:45:39.038Z,98576.09
2022-09-06T02:46:40.607Z,98569.09
2022-09-06T02:47:42.011Z,98572.47
2022-09-06T02:48:43.335Z,98580.13
2022-09-06T02:49:44.685Z,98575.34
2022-09-06T02:50:46.013Z,98590.69
2022-09-06T02:51:47.364Z,98598.66
2022-09-06T02:53:00.723Z,98597.06
2022-09-06T02:54:02.079Z,98590.19
2022-09-06T02:55:03.591Z,98591.34
2022-09-06T02:56:05.083Z,98579.03
2022-09-06T02:57:06.452Z,98577.47
2022-09-06T02:58:09.023Z,98566.31
2022-09-06T02:59:10.404Z,98562.00
2022-09-06T03:00:12.016Z,98545.03
2022-09-06T03:01:13.391Z,98535.03
2022-09-06T03:02:14.913Z,98533.44
2022-09-06T03:03:16.315Z,98517.00
2022-09-06T03:04:17.678Z,98505.50
2022-09-06T03:05:19.228Z,98497.44
2022-09-06T03:06:20.608Z,98490.56
2022-09-06T03:07:22.119Z,98484.00
2022-09-06T03:08:24.786Z,98480.03
2022-09-06T03:09:26.363Z,98481.88
2022-09-06T03:10:27.800Z,98481.44
2022-09-06T03:11:29.172Z,98487.94
2022-09-06T03:12:30.509Z,98490.63
2022-09-06T03:13:31.829Z,98486.03
2022-09-06T03:14:33.155Z,98489.47
2022-09-06T03:15:34.513Z,98497.13
2022-09-06T03:16:35.905Z,98505.16
2022-09-06T03:17:37.399Z,98498.66
2022-09-06T03:18:38.742Z,98509.41
2022-09-06T03:19:40.074Z,98506.28
2022-09-06T03:20:41.447Z,98505.16
2022-09-06T03:21:42.789Z,98515.53
2022-09-06T03:22:44.118Z,98511.31
2022-09-06T03:23:45.498Z,98516.69
2022-09-06T03:24:46.858Z,98521.28
2022-09-06T03:25:48.187Z,98514.78
2022-09-06T03:26:49.603Z,98509.03
2022-09-06T03:27:50.978Z,98519.78
2022-09-06T03:28:52.328Z,98519.00
2022-09-06T03:29:53.682Z,98531.28
2022-09-06T03:30:55.074Z,98522.03
2022-09-06T03:31:56.466Z,98525.06
2022-09-06T03:33:00.819Z,98526.91
2022-09-06T03:34:05.344Z,98529.94
2022-09-06T03:35:09.711Z,98531.56
2022-09-06T03:36:11.082Z,98531.56
2022-09-06T03:37:12.411Z,98524.72
2022-09-06T03:38:13.734Z,98526.66
2022-09-06T03:39:15.112Z,98527.34
2022-09-06T03:40:16.635Z,98525.00
2022-09-06T03:41:17.987Z,98526.84
2022-09-06T03:42:19.338Z,98533.66
2022-09-06T03:43:21.295Z,98533.25
2022-09-06T03:44:22.639Z,98535.59
2022-09-06T03:45:23.974Z,98535.59
2022-09-06T03:46:25.360Z,98544.75
2022-09-06T03:47:26.747Z,98544.34
2022-09-06T03:48:29.014Z,98547.38
2022-09-06T03:49:30.459Z,98547.38
2022-09-06T03:50:31.831Z,98547.38
2022-09-06T03:51:33.172Z,98546.59
2022-09-06T03:52:34.678Z,98546.94
2022-09-06T03:53:36.028Z,98543.03
2022-09-06T03:54:37.381Z,98544.19
2022-09-06T03:55:39.180Z,98543.75
2022-09-06T03:56:40.545Z,98554.50
2022-09-06T03:57:41.939Z,98557.50
2022-09-06T03:58:43.297Z,98560.19
2022-09-06T03:59:44.643Z,98560.19
2022-09-06T04:00:46.033Z,98558.63
2022-09-06T04:01:47.396Z,98549.03
2022-09-06T04:02:48.728Z,98544.44
2022-09-06T04:03:50.160Z,98535.09
2022-09-06T04:04:51.490Z,98528.94
2022-09-06T04:05:52.863Z,98528.94
2022-09-06T04:06:54.196Z,98529.31
2022-09-06T04:07:55.563Z,98525.03
2022-09-06T04:08:57.015Z,98531.53
2022-09-06T04:09:58.338Z,98518.41
2022-09-06T04:11:00.100Z,98526.44
2022-09-06T04:12:01.524Z,98520.81
2022-09-06T04:13:02.860Z,98515.78
2022-09-06T04:14:04.210Z,98518.13
2022-09-06T04:15:05.892Z,98523.06
2022-09-06T04:16:07.382Z,98524.22
2022-09-06T04:17:08.737Z,98522.63
2022-09-06T04:18:10.087Z,98525.75
2022-09-06T04:19:11.470Z,98525.84
2022-09-06T04:20:13.602Z,98529.72
2022-09-06T04:21:14.944Z,98533.16
2022-09-06T04:22:16.300Z,98535.09
2022-09-06T04:23:18.256Z,98536.63
2022-09-06T04:24:19.608Z,98538.97
2022-09-06T04:25:20.964Z,98542.84
2022-09-06T04:26:22.548Z,98535.94
2022-09-06T04:27:23.932Z,98532.13
2022-09-06T04:28:25.446Z,98522.94
2022-09-06T04:29:26.828Z,98513.56
2022-09-06T04:30:28.284Z,98512.00
2022-09-06T04:31:29.705Z,98505.16
2022-09-06T04:32:31.105Z,98511.66
2022-09-06T04:33:33.871Z,98515.91
2022-09-06T04:34:35.203Z,98508.97
2022-09-06T04:35:37.192Z,98512.00
2022-09-06T04:36:38.571Z,98505.94
2022-09-06T04:37:40.116Z,98501.00
2022-09-06T04:38:42.546Z,98496.91
2022-09-06T04:39:44.262Z,98504.28
2022-09-06T04:40:45.743Z,98496.31
2022-09-06T04:41:47.156Z,98500.63
2022-09-06T04:42:48.479Z,98502.53
2022-09-06T04:43:49.836Z,98500.25
2022-09-06T04:44:51.160Z,98501.78
2022-09-06T04:45:52.569Z,98505.97
2022-09-06T04:47:07.413Z,98501.75
2022-09-06T04:48:11.063Z,98505.53
2022-09-06T04:49:12.408Z,98508.59
2022-09-06T04:50:13.795Z,98507.81
2022-09-06T04:51:15.228Z,98515.16
2022-09-06T04:52:16.650Z,98510.91
2022-09-06T04:53:17.994Z,98520.09
2022-09-06T04:54:19.336Z,98523.56
2022-09-06T04:55:20.687Z,98529.28
2022-09-06T04:56:23.045Z,98535.34
2022-09-06T04:57:24.411Z,98532.63
2022-09-06T04:58:25.787Z,98534.09
2022-09-06T04:59:27.203Z,98527.50
2022-09-06T05:00:29.476Z,98537.00
2022-09-06T05:01:30.855Z,98538.16
2022-09-06T05:02:32.310Z,98528.56
2022-09-06T05:03:33.704Z,98537.72
2022-09-06T05:04:35.069Z,98542.75
2022-09-06T05:05:36.414Z,98540.06
2022-09-06T05:06:37.760Z,98545.75
2022-09-06T05:07:39.107Z,98546.91
2022-09-06T05:08:41.131Z,98536.53
2022-09-06T05:09:42.467Z,98546.13
2022-09-06T05:10:43.808Z,98531.56
2022-09-06T05:11:46.122Z,98535.47
2022-09-06T05:12:48.315Z,98533.19
2022-09-06T05:13:49.638Z,98537.78
2022-09-06T05:14:50.979Z,98540.56
2022-09-06T05:15:52.331Z,98539.44
2022-09-06T05:16:53.797Z,98537.63
2022-09-06T05:18:01.515Z,98549.50
2022-09-06T05:19:02.862Z,98551.75
2022-09-06T05:20:04.321Z,98551.75
2022-09-06T05:21:05.801Z,98552.06
2022-09-06T05:22:07.164Z,98557.88
2022-09-06T05:23:08.543Z,98548.00
2022-09-06T05:24:09.859Z,98548.84
2022-09-06T05:25:11.216Z,98548.94
2022-09-06T05:26:12.543Z,98549.00
2022-09-06T05:27:14.009Z,98549.34
2022-09-06T05:28:15.635Z,98549.00
2022-09-06T05:29:16.979Z,98547.81
2022-09-06T05:30:18.368Z,98549.00
2022-09-06T05:31:29.940Z,98552.81
2022-09-06T05:32:31.338Z,98556.22
2022-09-06T05:33:32.780Z,98558.94
2022-09-06T05:34:34.164Z,98547.44
2022-09-06T05:35:35.553Z,98550.50
2022-09-06T05:36:36.911Z,98546.31
2022-09-06T05:37:38.279Z,98551.25
2022-09-06T05:38:39.601Z,98557.41
2022-09-06T05:39:41.025Z,98550.13
2022-09-06T05:40:42.420Z,98555.50
2022-09-06T05:41:43.777Z,98551.63
2022-09-06T05:42:45.152Z,98559.69
2022-09-06T05:43:46.566Z,98554.34
2022-09-06T05:44:47.902Z,98553.25
2022-09-06T05:45:49.346Z,98552.47
2022-09-06T05:46:50.795Z,98553.94
2022-09-06T05:47:52.142Z,98550.69
2022-09-06T05:48:57.502Z,98555.22
2022-09-06T05:49:58.823Z,98557.47
2022-09-06T05:51:01.275Z,98547.16
2022-09-06T05:52:02.723Z,98550.28
2022-09-06T05:53:04.085Z,98551.41
2022-09-06T05:54:05.869Z,98554.88
2022-09-06T05:55:07.459Z,98552.88
2022-09-06T05:56:09.355Z,98549.00
2022-09-06T05:57:10.723Z,98552.47
2022-09-06T05:58:12.043Z,98545.88
2022-09-06T05:59:13.463Z,98547.44
2022-09-06T06:00:14.886Z,98540.53
2022-09-06T06:01:20.658Z,98543.97
2022-09-06T06:02:22.726Z,98552.19
2022-09-06T06:03:24.111Z,98547.59
2022-09-06T06:04:25.497Z,98546.53
2022-09-06T06:05:26.841Z,98542.72
2022-09-06T06:06:29.274Z,98542.78
2022-09-06T06:07:30.622Z,98545.53
2022-09-06T06:08:31.992Z,98542.84
2022-09-06T06:09:33.334Z,98543.22
2022-09-06T06:10:38.439Z,98543.22
2022-09-06T06:11:40.213Z,98543.97
2022-09-06T06:12:41.615Z,98540.44
2022-09-06T06:13:43.018Z,98548.50
2022-09-06T06:14:44.344Z,98552.41
2022-09-06T06:15:45.728Z,98551.56
2022-09-06T06:16:47.123Z,98552.31
2022-09-06T06:17:48.531Z,98544.72
2022-09-06T06:18:52.183Z,98549.28
2022-09-06T06:19:53.990Z,98548.56
2022-09-06T06:21:07.163Z,98554.03
2022-09-06T06:22:08.508Z,98559.41
2022-09-06T06:23:09.856Z,98554.03
2022-09-06T06:24:11.267Z,98560.59
2022-09-06T06:25:12.764Z,98564.56
2022-09-06T06:26:14.335Z,98560.44
2022-09-06T06:27:15.675Z,98565.09
2022-09-06T06:28:16.996Z,98556.69
2022-09-06T06:29:18.351Z,98564.47
2022-09-06T06:30:19.686Z,98564.94
2022-09-06T06:31:21.289Z,98566.22
2022-09-06T06:32:22.707Z,98567.47
2022-09-06T06:33:24.050Z,98563.78
2022-09-06T06:34:25.399Z,98570.47
2022-09-06T06:35:26.748Z,98577.13
2022-09-06T06:36:28.636Z,98572.22
2022-09-06T06:37:32.564Z,98571.28
2022-09-06T06:38:35.774Z,98567.94
2022-09-06T06:39:37.193Z,98566.91
2022-09-06T06:40:38.595Z,98572.06
2022-09-06T06:41:39.948Z,98569.16
2022-09-06T06:43:00.086Z,98572.78
2022-09-06T06:44:02.736Z,98565.59
2022-09-06T06:45:04.335Z,98574.06
2022-09-06T06:46:09.790Z,98571.47
2022-09-06T06:47:11.179Z,98563.53
2022-09-06T06:48:12.506Z,98569.78
2022-09-06T06:49:13.871Z,98566.78
2022-09-06T06:50:15.254Z,98567.69
2022-09-06T06:51:19.060Z,98568.94
2022-09-06T06:52:20.381Z,98569.38
2022-09-06T06:53:21.735Z,98569.72
2022-09-06T06:54:23.083Z,98570.94
2022-09-06T06:55:24.561Z,98573.34
2022-09-06T06:56:30.011Z,98569.63
2022-09-06T06:57:31.358Z,98565.91
2022-09-06T06:58:32.684Z,98567.97
2022-09-06T06:59:34.010Z,98567.22
2022-09-06T07:00:35.388Z,98564.28
2022-09-06T07:01:37.139Z,98568.94
2022-09-06T07:02:38.561Z,98572.84
2022-09-06T07:03:39.951Z,98569.38
2022-09-06T07:04:41.287Z,98564.50
2022-09-06T07:08:25.374Z,98546.53
2022-09-06T07:09:26.765Z,98549.63
2022-09-06T07:10:35.338Z,98548.03
2022-09-06T07:11:36.722Z,98534.97
2022-09-06T07:12:38.068Z,98543.75
2022-09-06T07:13:39.411Z,98547.22
2022-09-06T07:14:40.741Z,98544.84
2022-09-06T07:15:42.094Z,98550.66
2022-09-06T07:16:43.651Z,98550.97
2022-09-06T07:17:45.083Z,98553.28
2022-09-06T07:18:46.724Z,98551.34
2022-09-06T07:22:31.569Z,98553.19
2022-09-06T07:24:54.221Z,98556.66
2022-09-06T07:25:55.571Z,98551.72
2022-09-06T07:28:18.251Z,98559.78
2022-09-06T07:29:19.602Z,98555.06
2022-09-06T07:30:21.118Z,98560.91
2022-09-06T07:32:43.924Z,98560.47
2022-09-06T07:33:45.278Z,98564.31
2022-09-06T07:34:46.647Z,98562.00
2022-09-06T07:35:55.416Z,98563.16
2022-09-06T07:36:56.799Z,98558.53
2022-09-06T07:37:59.220Z,98556.59
2022-09-06T07:39:00.603Z,98565.09
2022-09-06T07:40:02.613Z,98560.13
2022-09-06T07:41:08.639Z,98559.41
2022-09-06T07:42:09.994Z,98561.75
2022-09-06T07:43:11.341Z,98561.84
2022-09-06T07:44:12.684Z,98563.72
2022-09-06T07:45:14.075Z,98557.56
2022-09-06T07:46:16.648Z,98560.25
2022-09-06T07:48:40.365Z,98560.38
2022-09-06T07:51:23.343Z,98555.44
2022-09-06T07:54:07.128Z,98565.53
2022-09-06T07:55:14.300Z,98556.31
2022-09-06T07:56:15.927Z,98555.97
2022-09-06T07:57:17.282Z,98549.44
2022-09-06T07:58:18.624Z,98549.09
2022-09-06T07:59:19.964Z,98549.84
2022-09-06T08:00:21.368Z,98550.31
2022-09-06T08:01:36.023Z,98549.19
2022-09-06T08:02:37.490Z,98546.09
2022-09-06T08:03:38.831Z,98548.78
2022-09-06T08:04:40.180Z,98546.13
2022-09-06T08:09:45.555Z,98535.03
2022-09-06T08:10:50.125Z,98533.88
2022-09-06T08:11:51.483Z,98532.75
2022-09-06T08:12:53.219Z,98525.00
2022-09-06T08:13:55.054Z,98530.06
2022-09-06T08:14:56.487Z,98533.53
2022-09-06T08:16:01.352Z,98526.22
2022-09-06T08:17:03.470Z,98537.41
2022-09-06T08:18:04.931Z,98528.19
2022-09-06T08:19:07.040Z,98534.34
2022-09-06T08:20:08.568Z,98535.13
2022-09-06T08:21:12.905Z,98534.00
2022-09-06T08:22:14.490Z,98533.25
2022-09-06T08:23:15.857Z,98529.81
2022-09-06T08:24:17.189Z,98532.88
2022-09-06T08:25:18.528Z,98533.28
2022-09-06T08:26:21.590Z,98533.66
2022-09-06T08:27:22.917Z,98539.91
2022-09-06T08:28:28.583Z,98545.31
2022-09-06T08:29:33.271Z,98543.78
2022-09-06T08:30:34.648Z,98539.91
2022-09-06T08:31:37.492Z,98537.97
2022-09-06T08:32:38.867Z,98532.19
2022-09-06T08:33:40.642Z,98538.34
2022-09-06T08:34:41.989Z,98543.78
2022-09-06T08:35:43.363Z,98546.09
2022-09-06T08:36:44.733Z,98539.53
2022-09-06T08:37:46.086Z,98538.38
2022-09-06T08:38:47.506Z,98544.56
2022-09-06T08:39:48.875Z,98539.16
2022-09-06T08:40:51.379Z,98549.97
2022-09-06T08:41:57.618Z,98543.78
2022-09-06T08:42:58.981Z,98547.66
2022-09-06T08:45:24.785Z,98536.84
2022-09-06T08:46:32.996Z,98539.19
2022-09-06T08:47:35.228Z,98539.56
2022-09-06T08:48:42.233Z,98533.00
2022-09-06T08:49:44.748Z,98537.25
2022-09-06T08:50:53.672Z,98543.81
2022-09-06T08:52:01.011Z,98539.56
2022-09-06T08:53:16.791Z,98534.94
2022-09-06T08:54:24.888Z,98535.72
2022-09-06T08:55:37.112Z,98534.91
2022-09-06T08:56:41.685Z,98543.78
2022-09-06T08:58:01.058Z,98534.06
2022-09-06T08:59:07.045Z,98538.69
2022-09-06T09:00:11.040Z,98541.00
2022-09-06T09:01:16.590Z,98536.34
2022-09-06T09:02:20.218Z,98535.56
2022-09-06T09:03:24.958Z,98542.91
2022-09-06T09:04:27.625Z,98525.81
2022-09-06T09:05:31.200Z,98524.97
2022-09-06T09:06:33.208Z,98528.78
2022-09-06T09:07:37.233Z,98524.84
2022-09-06T09:08:55.892Z,98522.41
2022-09-06T09:09:58.226Z,98517.31
2022-09-06T09:11:04.116Z,98522.22
2022-09-06T09:12:06.283Z,98520.91
2022-09-06T09:13:09.168Z,98517.75
2022-09-06T09:14:28.930Z,98520.75
2022-09-06T09:15:30.376Z,98523.00
2022-09-06T09:16:32.384Z,98520.31
2022-09-06T09:17:35.913Z,98515.97
2022-09-06T09:18:39.829Z,98517.88
2022-09-06T09:19:41.639Z,98519.41
2022-09-06T09:20:43.044Z,98515.63
2022-09-06T09:21:44.961Z,98516.03
2022-09-06T09:22:46.614Z,98518.81
2022-09-06T09:23:52.940Z,98512.97
2022-09-06T09:24:57.635Z,98515.69
2022-09-06T09:26:02.097Z,98511.44
2022-09-06T09:27:10.952Z,98513.03
2022-09-06T09:28:19.428Z,98514.56
2022-09-06T09:29:26.780Z,98512.66
2022-09-06T09:30:48.349Z,98521.19
2022-09-06T09:31:53.618Z,98517.59
2022-09-06T09:32:55.507Z,98519.91
2022-09-06T09:33:56.940Z,98515.22
2022-09-06T09:35:16.815Z,98520.66
2022-09-06T09:36:21.188Z,98515.22
2022-09-06T09:38:49.045Z,98516.28
2022-09-06T09:39:52.770Z,98515.03
2022-09-06T09:41:01.626Z,98507.94
2022-09-06T09:42:03.048Z,98511.72
2022-09-06T09:43:13.107Z,98512.38
2022-09-06T09:44:18.560Z,98509.94
2022-09-06T09:45:19.856Z,98511.81
2022-09-06T09:46:23.887Z,98511.34
2022-09-06T09:47:26.513Z,98516.72
2022-09-06T09:48:28.058Z,98517.06
2022-09-06T09:49:29.758Z,98517.00
2022-09-06T09:50:32.437Z,98515.84
2022-09-06T09:51:47.330Z,98503.75
2022-09-06T09:52:48.672Z,98506.38
2022-09-06T09:53:54.444Z,98514.78
2022-09-06T09:54:56.935Z,98505.41
2022-09-06T09:55:58.924Z,98517.41
2022-09-06T09:57:00.317Z,98512.28
2022-09-06T09:58:01.744Z,98508.06
2022-09-06T09:59:06.312Z,98511.47
2022-09-06T10:00:08.055Z,98511.94
2022-09-06T10:01:11.457Z,98503.81
2022-09-06T10:02:22.045Z,98506.53
2022-09-06T10:03:28.070Z,98511.31
2022-09-06T10:04:44.507Z,98511.38
2022-09-06T10:06:05.035Z,98509.75
2022-09-06T10:07:26.770Z,98514.75
2022-09-06T10:08:30.802Z,98513.50
2022-09-06T10:09:36.871Z,98507.25
2022-09-06T10:10:42.445Z,98503.69
2022-09-06T10:11:53.524Z,98507.97
2022-09-06T10:13:06.881Z,98508.31
2022-09-06T10:14:23.332Z,98506.31
2022-09-06T10:15:39.538Z,98510.81
2022-09-06T10:16:42.180Z,98508.81
2022-09-06T10:17:50.856Z,98509.94
2022-09-06T10:18:55.400Z,98509.06
2022-09-06T10:20:03.636Z,98509.84
2022-09-06T10:21:15.330Z,98502.34
2022-09-06T10:22:22.825Z,98499.91
2022-09-06T10:25:23.072Z,98498.19
2022-09-06T10:26:49.068Z,98505.41
2022-09-06T10:28:12.041Z,98508.72
2022-09-06T10:29:13.708Z,98505.56
2022-09-06T10:30:15.154Z,98506.41
2022-09-06T10:31:28.919Z,98500.47
2022-09-06T10:32:48.213Z,98500.75
2022-09-06T10:33:49.739Z,98498.25
2022-09-06T10:35:09.453Z,98498.16
2022-09-06T10:36:10.789Z,98491.69
2022-09-06T10:37:12.119Z,98485.78
2022-09-06T10:38:31.993Z,98492.03
2022-09-06T10:39:52.171Z,98489.78
2022-09-06T10:41:30.872Z,98489.00
2022-09-06T10:42:35.312Z,98486.88
2022-09-06T10:43:54.241Z,98484.16
2022-09-06T10:45:16.568Z,98491.84
2022-09-06T10:46:18.916Z,98488.22
2022-09-06T10:47:21.673Z,98483.81
2022-09-06T10:48:29.524Z,98491.84
2022-09-06T10:49:32.986Z,98491.84
2022-09-06T10:50:37.475Z,98489.81
2022-09-06T10:51:41.813Z,98483.59
2022-09-06T10:52:44.873Z,98492.06
2022-09-06T10:53:55.284Z,98486.81
2022-09-06T10:54:58.216Z,98486.84
2022-09-06T10:56:07.447Z,98491.41
2022-09-06T11:00:05.518Z,98482.75
2022-09-06T11:01:07.465Z,98476.97
2022-09-06T11:02:29.213Z,98481.22
2022-09-06T11:06:16.436Z,98475.03
2022-09-06T11:07:29.907Z,98475.78
2022-09-06T11:08:48.149Z,98474.22
2022-09-06T11:09:53.183Z,98470.88
2022-09-06T11:10:54.979Z,98467.13
2022-09-06T11:12:34.826Z,98476.75
2022-09-06T11:13:36.164Z,98471.31
2022-09-06T11:14:38.413Z,98468.56
2022-09-06T11:15:48.491Z,98466.09
2022-09-06T11:16:56.639Z,98470.09
2022-09-06T11:18:04.129Z,98464.38
2022-09-06T11:19:15.748Z,98465.75
2022-09-06T11:20:23.012Z,98467.97
2022-09-06T11:21:44.305Z,98469.94
2022-09-06T11:22:45.628Z,98464.03
2022-09-06T11:23:46.954Z,98462.00
2022-09-06T11:25:00.180Z,98469.59
2022-09-06T11:26:21.782Z,98470.25
2022-09-06T11:27:33.336Z,98464.28
2022-09-06T11:28:34.809Z,98465.72
2022-09-06T11:29:39.807Z,98468.13
2022-09-06T11:30:45.817Z,98473.13
2022-09-06T11:32:19.066Z,98466.78
2022-09-06T11:33:28.400Z,98468.97
2022-09-06T11:34:29.784Z,98470.38
2022-09-06T11:35:32.302Z,98471.06
2022-09-06T11:36:38.142Z,98469.41
2022-09-06T11:37:43.132Z,98467.97
2022-09-06T11:38:53.323Z,98472.16
2022-09-06T11:40:28.474Z,98467.28
2022-09-06T11:41:31.778Z,98473.06
2022-09-06T11:43:02.112Z,98472.41
2022-09-06T11:44:04.277Z,98472.16
2022-09-06T11:45:05.575Z,98463.53
2022-09-06T11:46:06.931Z,98465.16
2022-09-06T11:47:08.352Z,98470.25
2022-09-06T11:48:24.616Z,98463.94
2022-09-06T11:49:30.983Z,98467.19
2022-09-06T11:51:04.805Z,98464.72
2022-09-06T11:52:28.166Z,98465.41
2022-09-06T11:53:30.839Z,98464.66
2022-09-06T11:54:41.196Z,98467.72
2022-09-06T11:55:47.711Z,98463.00
2022-09-06T11:57:18.169Z,98465.81
2022-09-06T11:58:25.647Z,98458.56
2022-09-06T11:59:35.639Z,98457.28
2022-09-06T12:00:36.987Z,98462.75
2022-09-06T12:01:39.348Z,98461.47
2022-09-06T12:02:41.550Z,98463.69
2022-09-06T12:05:04.284Z,98449.09
2022-09-06T12:06:22.265Z,98453.88
2022-09-06T12:07:23.573Z,98455.25
2022-09-06T12:08:31.770Z,98446.81
2022-09-06T12:09:37.007Z,98439.97
2022-09-06T12:10:41.124Z,98439.72
2022-09-06T12:11:45.812Z,98435.13
2022-09-06T12:12:50.600Z,98431.63
2022-09-06T12:13:56.111Z,98432.59
2022-09-06T12:14:57.499Z,98433.09
2022-09-06T12:15:59.642Z,98426.38
2022-09-06T12:17:01.048Z,98430.28
2022-09-06T12:18:02.407Z,98440.16
2022-09-06T12:19:03.779Z,98435.34
2022-09-06T12:20:05.410Z,98440.13
2022-09-06T12:21:06.879Z,98440.53
2022-09-06T12:22:26.641Z,98444.53
2022-09-06T12:23:36.840Z,98443.41
2022-09-06T12:24:38.171Z,98443.06
2022-09-06T12:25:39.508Z,98438.81
2022-09-06T12:26:55.291Z,98439.63
2022-09-06T12:27:58.593Z,98441.59
2022-09-06T12:29:00.004Z,98437.41
2022-09-06T12:30:12.157Z,98437.03
2022-09-06T12:31:22.362Z,98433.94
2022-09-06T12:32:28.326Z,98443.31
2022-09-06T12:33:36.660Z,98441.59
2022-09-06T12:34:38.156Z,98434.28
2022-09-06T12:37:03.555Z,98441.03
2022-09-06T12:38:06.351Z,98438.31
2022-09-06T12:39:11.217Z,98438.31
2022-09-06T12:40:12.919Z,98447.25
2022-09-06T12:41:14.420Z,98441.44
2022-09-06T12:42:18.153Z,98439.13
2022-09-06T12:43:19.783Z,98432.97
2022-09-06T12:44:30.246Z,98438.47
2022-09-06T12:45:31.788Z,98434.59
2022-09-06T12:46:34.165Z,98438.47
2022-09-06T12:47:37.158Z,98433.03
2022-09-06T12:48:38.504Z,98432.28
2022-09-06T12:49:39.953Z,98440.44
2022-09-06T12:50:41.291Z,98433.53
2022-09-06T12:51:45.435Z,98434.66
2022-09-06T12:52:54.459Z,98434.28
2022-09-06T12:54:03.247Z,98435.91
2022-09-06T12:55:13.651Z,98430.50
2022-09-06T12:56:19.375Z,98428.69
2022-09-06T12:57:22.409Z,98432.91
2022-09-06T12:58:27.941Z,98427.50
2022-09-06T12:59:32.186Z,98433.38
2022-09-06T13:00:35.278Z,98429.88
2022-09-06T13:01:37.060Z,98430.56
2022-09-06T13:02:41.353Z,98435.47
2022-09-06T13:03:52.845Z,98427.91
2022-09-06T13:05:00.214Z,98432.63
2022-09-06T13:06:03.867Z,98427.75
2022-09-06T13:07:08.916Z,98426.84
2022-09-06T13:08:15.017Z,98420.81